LEST

Santiago de Compostela Airport

Santiago de Compostela, Spain
TAF AMD LEST 210932Z 2109/2206 VRB04KT 9999 SCT014 BKN028 TX22/2114Z TN13/2206Z TEMPO 2109/2119 3000 -RA BKN010 PROB40 TEMPO 2112/2119 29010KT SHRA SCT025TCU TEMPO 2118/2206 BKN010 PROB40 TEMPO 2200/2206 3000 BR BKN005
Issued Valid From Valid To
Jul-21 @ 09:32 UTC
(2 hours ago)
Jul-21 @ 09:00 UTC
(2 hours ago)
Jul-22 @ 06:00 UTC
(in 19 hours)
Jul-21 @ 09:00 to Jul-22 @ 06:00
TAF AMD LEST 210932Z 2109/2206 VRB04KT 9999 SCT014 BKN028 TX22/2114Z TN13/2206Z
Wind Visibility Clouds
Variable at 4 knots 10,000+ meters
  • Scattered at 1,400' AGL
  • Broken at 2,800' AGL
Temporary Jul-21 @ 09:00 to Jul-21 @ 19:00
TEMPO 2109/2119 3000 -RA BKN010
Visibility Clouds Conditions
2,993 meters
  • Broken at 1,000' AGL
  • Light Rain
Temporary  (Probability 40%) Jul-21 @ 12:00 to Jul-21 @ 19:00
PROB40 TEMPO 2112/2119 29010KT SHRA SCT025TCU
Wind Clouds Conditions
290° at 10 knots
  • Scattered at 2,500' AGL
  • Rain
Temporary Jul-21 @ 18:00 to Jul-22 @ 06:00
TEMPO 2118/2206 BKN010
Clouds
  • Broken at 1,000' AGL
Temporary  (Probability 40%) Jul-22 @ 00:00 to Jul-22 @ 06:00
PROB40 TEMPO 2200/2206 3000 BR BKN005
Visibility Clouds Conditions
2,993 meters
  • Broken at 500' AGL
  • Mist
TAF AMD LEST 210932Z 2109/2206 VRB04KT 9999 SCT014 BKN028 TX22/2114Z TN13/2206Z TEMPO 2109/2119 3000 -RA BKN010 PROB40 TEMPO 2112/2119 29010KT SHRA SCT025TCU TEMPO 2118/2206 BKN010 PROB40 TEMPO 2200/2206 3000 BR BKN005
Issued Jul-21 @ 09:32 UTC
(2 hours ago)
Valid From Jul-21 @ 09:00 UTC
(2 hours ago)
Valid To Jul-22 @ 06:00 UTC
(in 19 hours)
Jul-21 @ 09:00 - Jul-22 @ 06:00
Wind Visibility
Variable at 4 knots 10,000+ meters
Clouds
  • Scattered at 1,400' AGL
  • Broken at 2,800' AGL
Temporary Jul-21 @ 09:00 - Jul-21 @ 19:00
Clouds
  • Broken at 1,000' AGL
Conditions
  • Light Rain
Probability 40% Temporary Jul-21 @ 12:00 - Jul-21 @ 19:00
Wind
290° at 10 knots
Clouds
  • Scattered at 2,500' AGL
Conditions
  • Rain
Temporary Jul-21 @ 18:00 - Jul-22 @ 06:00
Clouds
  • Broken at 1,000' AGL
Probability 40% Temporary Jul-22 @ 00:00 - Jul-22 @ 06:00
Clouds
  • Broken at 500' AGL
Conditions
  • Mist